KAVL/AVL METAR and TAF weather

Enter ICAO airport designator
Station Type Date Time Source
KAVL METAR 2018/01/23 01:16 UTC NOAA

KAVL 230116Z 25008KT 2SM +RA BR FEW004 BKN012 OVC018 09/08 A2999 RMK AO2 P0006 T00890083


Station Type Date Time Source
KAVL Decoded METAR 2018/01/23 01:16 UTC NOAA

ASHEVILLE REGIONAL AIRPORT, NC, United States (KAVL) 35-26N 82-32W 670M
Jan 22, 2018 - 08:16 PM EST / 2018.01.23 0116 UTC
Wind: from the WSW (250 degrees) at 9 MPH (8 KT):0
Visibility: 2 mile(s):0
Sky conditions: overcast
Weather: heavy rain; mist
Precipitation last hour: 0.06 inches
Temperature: 48.0 F (8.9 C)
Dew Point: 46.9 F (8.3 C)
Relative Humidity: 96%
Pressure (altimeter): 29.99 in. Hg (1015 hPa)
ob: KAVL 230116Z 25008KT 2SM +RA BR FEW004 BKN012 OVC018 09/08 A2999 RMK AO2 P0006 T00890083
cycle: 1

Station Type Date Time Source
KAVL TAF 2018/01/23 00:00 UTC NOAA

KAVL 222356Z 2300/2324 15008KT 5SM -SHRA SCT006 OVC012
FM230200 16008KT 3SM -SHRA OVC006
TEMPO 2302/2306 1SM +SHRA
FM230700 21009G17KT 5SM BR VCSH BKN015
FM231000 22008KT P6SM SCT018
FM231500 30010G20KT P6SM FEW250


Example: see airport list